sensor_id;sensor_type;location;lat;lon;timestamp;pressure;altitude;pressure_sealevel;temperature;humidity
61026;BME280;46911;32.650;-16.902;2024-02-16T00:00:31;102358.03;;;15.96;70.80
61026;BME280;46911;32.650;-16.902;2024-02-16T00:02:36;102345.06;;;15.88;70.92
61026;BME280;46911;32.650;-16.902;2024-02-16T00:04:42;102343.44;;;15.86;71.06
61026;BME280;46911;32.650;-16.902;2024-02-16T00:06:46;102342.28;;;15.90;71.18
61026;BME280;46911;32.650;-16.902;2024-02-16T00:08:48;102340.75;;;15.86;71.27
61026;BME280;46911;32.650;-16.902;2024-02-16T00:10:52;102361.06;;;16.04;71.33
61026;BME280;46911;32.650;-16.902;2024-02-16T00:12:53;102359.84;;;16.10;71.09
61026;BME280;46911;32.650;-16.902;2024-02-16T00:14:56;102357.69;;;16.15;71.04
61026;BME280;46911;32.650;-16.902;2024-02-16T00:17:01;102361.94;;;16.19;70.74
61026;BME280;46911;32.650;-16.902;2024-02-16T00:19:05;102332.47;;;16.03;70.71
61026;BME280;46911;32.650;-16.902;2024-02-16T00:21:08;102334.94;;;16.06;70.77
61026;BME280;46911;32.650;-16.902;2024-02-16T00:23:11;102332.34;;;16.05;70.74
61026;BME280;46911;32.650;-16.902;2024-02-16T00:25:17;102347.38;;;16.22;70.48
61026;BME280;46911;32.650;-16.902;2024-02-16T00:27:18;102318.22;;;16.01;70.79
61026;BME280;46911;32.650;-16.902;2024-02-16T00:29:27;102347.03;;;16.14;70.87
61026;BME280;46911;32.650;-16.902;2024-02-16T00:31:29;102334.16;;;16.04;71.29
61026;BME280;46911;32.650;-16.902;2024-02-16T00:33:33;102336.56;;;16.09;71.03
61026;BME280;46911;32.650;-16.902;2024-02-16T00:35:34;102317.88;;;15.93;71.21
61026;BME280;46911;32.650;-16.902;2024-02-16T00:37:37;102337.63;;;16.06;71.42
61026;BME280;46911;32.650;-16.902;2024-02-16T00:39:43;102339.44;;;16.06;71.24
61026;BME280;46911;32.650;-16.902;2024-02-16T00:41:44;102318.72;;;15.94;71.28
61026;BME280;46911;32.650;-16.902;2024-02-16T00:43:47;102338.22;;;15.97;71.55
61026;BME280;46911;32.650;-16.902;2024-02-16T00:45:48;102339.28;;;15.95;71.86
61026;BME280;46911;32.650;-16.902;2024-02-16T00:47:51;102339.50;;;15.92;71.77
61026;BME280;46911;32.650;-16.902;2024-02-16T00:49:54;102346.31;;;15.97;71.81
61026;BME280;46911;32.650;-16.902;2024-02-16T00:51:59;102354.47;;;15.96;71.88
61026;BME280;46911;32.650;-16.902;2024-02-16T00:54:00;102341.88;;;15.96;71.44
61026;BME280;46911;32.650;-16.902;2024-02-16T00:56:06;102344.34;;;15.99;71.39
61026;BME280;46911;32.650;-16.902;2024-02-16T00:58:12;102342.56;;;16.00;71.43
61026;BME280;46911;32.650;-16.902;2024-02-16T01:00:13;102337.41;;;16.10;71.01
61026;BME280;46911;32.650;-16.902;2024-02-16T01:02:18;102363.13;;;16.28;70.45
61026;BME280;46911;32.650;-16.902;2024-02-16T01:04:23;102349.56;;;16.30;70.71
61026;BME280;46911;32.650;-16.902;2024-02-16T01:06:26;102351.97;;;16.34;70.49
61026;BME280;46911;32.650;-16.902;2024-02-16T01:08:27;102328.75;;;16.19;70.55
61026;BME280;46911;32.650;-16.902;2024-02-16T01:10:28;102327.69;;;16.21;70.56
61026;BME280;46911;32.650;-16.902;2024-02-16T01:12:33;102327.16;;;16.29;70.35
61026;BME280;46911;32.650;-16.902;2024-02-16T01:14:34;102333.88;;;16.36;70.13
61026;BME280;46911;32.650;-16.902;2024-02-16T01:16:35;102315.16;;;16.20;70.29
61026;BME280;46911;32.650;-16.902;2024-02-16T01:18:39;102310.47;;;16.24;70.17
61026;BME280;46911;32.650;-16.902;2024-02-16T01:20:41;102312.28;;;16.23;70.41
61026;BME280;46911;32.650;-16.902;2024-02-16T01:22:41;102315.94;;;16.22;70.48
61026;BME280;46911;32.650;-16.902;2024-02-16T01:24:45;102318.13;;;16.30;70.53
61026;BME280;46911;32.650;-16.902;2024-02-16T01:26:49;102316.81;;;16.23;70.35
61026;BME280;46911;32.650;-16.902;2024-02-16T01:28:52;102326.28;;;16.29;70.44
61026;BME280;46911;32.650;-16.902;2024-02-16T01:30:55;102330.72;;;16.30;70.58
61026;BME280;46911;32.650;-16.902;2024-02-16T01:32:59;102306.03;;;16.23;70.57
61026;BME280;46911;32.650;-16.902;2024-02-16T01:35:00;102312.69;;;16.17;70.72
61026;BME280;46911;32.650;-16.902;2024-02-16T01:37:01;102309.34;;;16.14;70.85
61026;BME280;46911;32.650;-16.902;2024-02-16T01:39:02;102326.72;;;16.22;70.69
61026;BME280;46911;32.650;-16.902;2024-02-16T01:41:07;102321.84;;;16.15;70.95
61026;BME280;46911;32.650;-16.902;2024-02-16T01:43:11;102334.50;;;16.13;71.29
61026;BME280;46911;32.650;-16.902;2024-02-16T01:45:12;102302.06;;;16.01;71.18
61026;BME280;46911;32.650;-16.902;2024-02-16T01:47:18;102311.09;;;16.00;71.10
61026;BME280;46911;32.650;-16.902;2024-02-16T01:49:22;102331.69;;;16.01;71.24
61026;BME280;46911;32.650;-16.902;2024-02-16T01:51:25;102329.38;;;15.95;71.05
61026;BME280;46911;32.650;-16.902;2024-02-16T01:53:27;102338.50;;;15.93;71.08
61026;BME280;46911;32.650;-16.902;2024-02-16T01:55:31;102306.16;;;15.80;71.20
61026;BME280;46911;32.650;-16.902;2024-02-16T01:57:32;102336.91;;;15.90;70.80
61026;BME280;46911;32.650;-16.902;2024-02-16T01:59:35;102338.63;;;15.91;70.76
61026;BME280;46911;32.650;-16.902;2024-02-16T02:01:37;102336.25;;;15.86;70.78
61026;BME280;46911;32.650;-16.902;2024-02-16T02:03:38;102342.78;;;15.82;70.71
61026;BME280;46911;32.650;-16.902;2024-02-16T02:05:45;102329.31;;;15.82;70.50
61026;BME280;46911;32.650;-16.902;2024-02-16T02:07:46;102314.31;;;15.78;70.31
61026;BME280;46911;32.650;-16.902;2024-02-16T02:09:49;102341.91;;;15.82;70.14
61026;BME280;46911;32.650;-16.902;2024-02-16T02:11:50;102325.56;;;15.70;70.19
61026;BME280;46911;32.650;-16.902;2024-02-16T02:13:56;102358.94;;;15.82;70.25
61026;BME280;46911;32.650;-16.902;2024-02-16T02:16:00;102349.91;;;15.83;69.63
61026;BME280;46911;32.650;-16.902;2024-02-16T02:18:06;102346.13;;;15.86;69.80
61026;BME280;46911;32.650;-16.902;2024-02-16T02:20:07;102342.00;;;15.80;69.69
61026;BME280;46911;32.650;-16.902;2024-02-16T02:22:19;102321.25;;;15.68;69.92
61026;BME280;46911;32.650;-16.902;2024-02-16T02:24:20;102314.81;;;15.70;70.04
61026;BME280;46911;32.650;-16.902;2024-02-16T02:26:24;102332.75;;;15.70;70.22
61026;BME280;46911;32.650;-16.902;2024-02-16T02:28:25;102320.19;;;15.56;70.14
61026;BME280;46911;32.650;-16.902;2024-02-16T02:30:32;102314.25;;;15.51;70.33
61026;BME280;46911;32.650;-16.902;2024-02-16T02:32:35;102335.75;;;15.65;70.25
61026;BME280;46911;32.650;-16.902;2024-02-16T02:34:36;102306.66;;;15.43;70.52
61026;BME280;46911;32.650;-16.902;2024-02-16T02:36:37;102334.03;;;15.50;70.90
61026;BME280;46911;32.650;-16.902;2024-02-16T02:38:38;102299.47;;;15.29;71.25
61026;BME280;46911;32.650;-16.902;2024-02-16T02:40:41;102328.38;;;15.40;71.66
61026;BME280;46911;32.650;-16.902;2024-02-16T02:42:45;102320.78;;;15.32;72.59
61026;BME280;46911;32.650;-16.902;2024-02-16T02:44:51;102320.78;;;15.32;72.48
61026;BME280;46911;32.650;-16.902;2024-02-16T02:46:55;102299.19;;;15.19;72.86
61026;BME280;46911;32.650;-16.902;2024-02-16T02:48:58;102314.91;;;15.26;72.95
61026;BME280;46911;32.650;-16.902;2024-02-16T02:51:02;102313.47;;;15.20;73.19
61026;BME280;46911;32.650;-16.902;2024-02-16T02:53:06;102288.03;;;15.11;73.39
61026;BME280;46911;32.650;-16.902;2024-02-16T02:55:07;102314.91;;;15.26;73.20
61026;BME280;46911;32.650;-16.902;2024-02-16T02:57:13;102273.63;;;14.98;73.51
61026;BME280;46911;32.650;-16.902;2024-02-16T02:59:14;102320.41;;;15.24;73.33
61026;BME280;46911;32.650;-16.902;2024-02-16T03:01:14;102306.00;;;15.25;73.48
61026;BME280;46911;32.650;-16.902;2024-02-16T03:03:16;102278.63;;;15.04;73.78
61026;BME280;46911;32.650;-16.902;2024-02-16T03:05:19;102308.97;;;15.06;73.69
61026;BME280;46911;32.650;-16.902;2024-02-16T03:07:22;102278.34;;;14.94;74.26
61026;BME280;46911;32.650;-16.902;2024-02-16T03:09:25;102277.47;;;14.94;74.11
61026;BME280;46911;32.650;-16.902;2024-02-16T03:11:26;102291.59;;;14.97;74.40
61026;BME280;46911;32.650;-16.902;2024-02-16T03:13:27;102298.41;;;15.03;74.40
61026;BME280;46911;32.650;-16.902;2024-02-16T03:15:34;102274.78;;;14.94;74.02
61026;BME280;46911;32.650;-16.902;2024-02-16T03:17:38;102276.81;;;14.90;74.10
61026;BME280;46911;32.650;-16.902;2024-02-16T03:19:39;102292.38;;;14.99;74.14
61026;BME280;46911;32.650;-16.902;2024-02-16T03:21:40;102265.97;;;14.92;73.87
61026;BME280;46911;32.650;-16.902;2024-02-16T03:23:44;102253.69;;;14.87;73.19
61026;BME280;46911;32.650;-16.902;2024-02-16T03:25:49;102296.38;;;15.06;73.41
61026;BME280;46911;32.650;-16.902;2024-02-16T03:27:53;102280.94;;;14.96;73.62
61026;BME280;46911;32.650;-16.902;2024-02-16T03:29:54;102279.19;;;14.95;73.75
61026;BME280;46911;32.650;-16.902;2024-02-16T03:31:55;102265.38;;;14.86;73.34
61026;BME280;46911;32.650;-16.902;2024-02-16T03:33:58;102289.75;;;14.98;73.51
61026;BME280;46911;32.650;-16.902;2024-02-16T03:35:59;102289.09;;;14.94;73.62
61026;BME280;46911;32.650;-16.902;2024-02-16T03:38:03;102298.09;;;14.93;73.82
61026;BME280;46911;32.650;-16.902;2024-02-16T03:40:08;102281.97;;;14.79;73.44
61026;BME280;46911;32.650;-16.902;2024-02-16T03:42:13;102291.94;;;14.91;73.92
61026;BME280;46911;32.650;-16.902;2024-02-16T03:44:14;102293.88;;;14.89;73.50
61026;BME280;46911;32.650;-16.902;2024-02-16T03:46:16;102271.31;;;14.77;73.23
61026;BME280;46911;32.650;-16.902;2024-02-16T03:48:21;102298.31;;;14.90;73.37
61026;BME280;46911;32.650;-16.902;2024-02-16T03:50:24;102290.91;;;14.94;73.24
61026;BME280;46911;32.650;-16.902;2024-02-16T03:52:25;102292.03;;;14.89;73.24
61026;BME280;46911;32.650;-16.902;2024-02-16T03:54:31;102275.53;;;14.81;72.74
61026;BME280;46911;32.650;-16.902;2024-02-16T03:56:34;102267.38;;;14.83;72.74
61026;BME280;46911;32.650;-16.902;2024-02-16T03:58:38;102257.28;;;14.72;72.80
61026;BME280;46911;32.650;-16.902;2024-02-16T04:00:39;102284.09;;;14.88;73.17
61026;BME280;46911;32.650;-16.902;2024-02-16T04:02:39;102273.25;;;14.89;73.23
61026;BME280;46911;32.650;-16.902;2024-02-16T04:04:41;102250.88;;;14.75;73.17
61026;BME280;46911;32.650;-16.902;2024-02-16T04:06:45;102274.59;;;14.82;73.54
61026;BME280;46911;32.650;-16.902;2024-02-16T04:08:49;102251.06;;;14.71;73.36
61026;BME280;46911;32.650;-16.902;2024-02-16T04:10:53;102260.88;;;14.72;73.36
61026;BME280;46911;32.650;-16.902;2024-02-16T04:12:54;102283.34;;;14.86;73.05
61026;BME280;46911;32.650;-16.902;2024-02-16T04:15:01;102280.66;;;14.86;73.12
61026;BME280;46911;32.650;-16.902;2024-02-16T04:17:04;102261.91;;;14.70;73.23
61026;BME280;46911;32.650;-16.902;2024-02-16T04:19:08;102272.16;;;14.78;73.36
61026;BME280;46911;32.650;-16.902;2024-02-16T04:21:09;102253.06;;;14.68;73.29
61026;BME280;46911;32.650;-16.902;2024-02-16T04:23:09;102269.69;;;14.75;73.54
61026;BME280;46911;32.650;-16.902;2024-02-16T04:25:13;102272.00;;;14.81;73.27
61026;BME280;46911;32.650;-16.902;2024-02-16T04:27:13;102270.06;;;14.83;73.37
61026;BME280;46911;32.650;-16.902;2024-02-16T04:29:17;102264.31;;;14.89;73.12
61026;BME280;46911;32.650;-16.902;2024-02-16T04:31:21;102260.84;;;14.87;73.23
61026;BME280;46911;32.650;-16.902;2024-02-16T04:33:25;102269.13;;;14.84;73.16
61026;BME280;46911;32.650;-16.902;2024-02-16T04:35:26;102265.47;;;14.85;73.25
61026;BME280;46911;32.650;-16.902;2024-02-16T04:37:29;102246.88;;;14.82;73.47
61026;BME280;46911;32.650;-16.902;2024-02-16T04:39:30;102231.69;;;14.66;73.51
61026;BME280;46911;32.650;-16.902;2024-02-16T04:41:31;102249.91;;;14.76;73.76
61026;BME280;46911;32.650;-16.902;2024-02-16T04:43:36;102232.44;;;14.68;73.69
61026;BME280;46911;32.650;-16.902;2024-02-16T04:45:39;102257.63;;;14.82;73.97
61026;BME280;46911;32.650;-16.902;2024-02-16T04:47:40;102269.91;;;14.86;73.84
61026;BME280;46911;32.650;-16.902;2024-02-16T04:49:41;102281.69;;;14.83;73.68
61026;BME280;46911;32.650;-16.902;2024-02-16T04:51:42;102277.66;;;14.90;73.36
61026;BME280;46911;32.650;-16.902;2024-02-16T04:53:43;102272.28;;;14.90;73.04
61026;BME280;46911;32.650;-16.902;2024-02-16T04:55:46;102281.31;;;15.04;72.34
61026;BME280;46911;32.650;-16.902;2024-02-16T04:57:52;102254.72;;;14.85;72.32
61026;BME280;46911;32.650;-16.902;2024-02-16T04:59:53;102254.63;;;14.86;72.47
61026;BME280;46911;32.650;-16.902;2024-02-16T05:01:54;102258.47;;;14.82;72.66
61026;BME280;46911;32.650;-16.902;2024-02-16T05:03:57;102272.75;;;14.83;72.97
61026;BME280;46911;32.650;-16.902;2024-02-16T05:06:02;102268.16;;;14.85;72.95
61026;BME280;46911;32.650;-16.902;2024-02-16T05:08:06;102252.03;;;14.70;72.52
61026;BME280;46911;32.650;-16.902;2024-02-16T05:10:10;102271.59;;;14.87;72.97
61026;BME280;46911;32.650;-16.902;2024-02-16T05:12:14;102280.44;;;14.89;72.94
61026;BME280;46911;32.650;-16.902;2024-02-16T05:14:15;102244.69;;;14.58;73.09
61026;BME280;46911;32.650;-16.902;2024-02-16T05:16:16;102296.94;;;14.83;73.35
61026;BME280;46911;32.650;-16.902;2024-02-16T05:18:21;102304.44;;;14.92;72.25
61026;BME280;46911;32.650;-16.902;2024-02-16T05:20:23;102279.47;;;14.76;71.96
61026;BME280;46911;32.650;-16.902;2024-02-16T05:22:24;102277.53;;;14.78;71.31
61026;BME280;46911;32.650;-16.902;2024-02-16T05:24:27;102281.78;;;14.82;70.96
61026;BME280;46911;32.650;-16.902;2024-02-16T05:26:28;102303.56;;;14.92;71.08
61026;BME280;46911;32.650;-16.902;2024-02-16T05:28:31;102289.84;;;14.82;71.01
61026;BME280;46911;32.650;-16.902;2024-02-16T05:30:32;102284.84;;;14.76;71.33
61026;BME280;46911;32.650;-16.902;2024-02-16T05:32:38;102308.94;;;14.92;71.44
61026;BME280;46911;32.650;-16.902;2024-02-16T05:34:42;102320.66;;;14.90;71.47
61026;BME280;46911;32.650;-16.902;2024-02-16T05:36:45;102334.19;;;14.89;71.75
61026;BME280;46911;32.650;-16.902;2024-02-16T05:38:47;102320.44;;;14.79;72.44
61026;BME280;46911;32.650;-16.902;2024-02-16T05:40:53;102338.41;;;14.93;73.28
61026;BME280;46911;32.650;-16.902;2024-02-16T05:42:54;102341.50;;;15.01;73.25
61026;BME280;46911;32.650;-16.902;2024-02-16T05:45:04;102337.84;;;15.02;72.55
61026;BME280;46911;32.650;-16.902;2024-02-16T05:47:05;102319.00;;;14.88;72.44
61026;BME280;46911;32.650;-16.902;2024-02-16T05:49:06;102339.84;;;14.99;72.41
61026;BME280;46911;32.650;-16.902;2024-02-16T05:51:11;102332.94;;;14.95;72.27
61026;BME280;46911;32.650;-16.902;2024-02-16T05:53:17;102315.13;;;14.78;72.70
61026;BME280;46911;32.650;-16.902;2024-02-16T05:55:23;102335.03;;;14.89;72.84
61026;BME280;46911;32.650;-16.902;2024-02-16T05:57:28;102319.47;;;14.80;73.03
61026;BME280;46911;32.650;-16.902;2024-02-16T05:59:32;102314.66;;;14.71;73.33
61026;BME280;46911;32.650;-16.902;2024-02-16T06:01:35;102315.44;;;14.73;73.47
61026;BME280;46911;32.650;-16.902;2024-02-16T06:03:41;102337.13;;;14.84;73.77
61026;BME280;46911;32.650;-16.902;2024-02-16T06:05:44;102349.50;;;14.87;74.26
61026;BME280;46911;32.650;-16.902;2024-02-16T06:07:48;102331.44;;;14.75;74.11
61026;BME280;46911;32.650;-16.902;2024-02-16T06:09:53;102343.47;;;14.83;74.33
61026;BME280;46911;32.650;-16.902;2024-02-16T06:11:55;102335.13;;;14.88;74.57
61026;BME280;46911;32.650;-16.902;2024-02-16T06:14:01;102334.19;;;14.89;74.42
61026;BME280;46911;32.650;-16.902;2024-02-16T06:16:05;102350.78;;;14.96;74.26
61026;BME280;46911;32.650;-16.902;2024-02-16T06:18:08;102348.84;;;14.98;74.10
61026;BME280;46911;32.650;-16.902;2024-02-16T06:20:10;102344.56;;;14.95;74.02
61026;BME280;46911;32.650;-16.902;2024-02-16T06:22:14;102359.34;;;15.02;73.82
61026;BME280;46911;32.650;-16.902;2024-02-16T06:24:21;102376.47;;;15.16;73.94
61026;BME280;46911;32.650;-16.902;2024-02-16T06:26:25;102388.09;;;15.31;73.70
61026;BME280;46911;32.650;-16.902;2024-02-16T06:28:29;102384.72;;;15.42;73.45
61026;BME280;46911;32.650;-16.902;2024-02-16T06:30:29;102387.25;;;15.45;73.54
61026;BME280;46911;32.650;-16.902;2024-02-16T06:32:35;102362.63;;;15.36;73.29
61026;BME280;46911;32.650;-16.902;2024-02-16T06:34:36;102361.59;;;15.39;73.39
61026;BME280;46911;32.650;-16.902;2024-02-16T06:36:40;102372.72;;;15.47;73.50
61026;BME280;46911;32.650;-16.902;2024-02-16T06:38:44;102358.53;;;15.45;73.46
61026;BME280;46911;32.650;-16.902;2024-02-16T06:40:45;102352.66;;;15.38;73.61
61026;BME280;46911;32.650;-16.902;2024-02-16T06:42:45;102361.31;;;15.44;73.65
61026;BME280;46911;32.650;-16.902;2024-02-16T06:44:47;102364.66;;;15.47;73.42
61026;BME280;46911;32.650;-16.902;2024-02-16T06:46:47;102365.53;;;15.48;73.36
61026;BME280;46911;32.650;-16.902;2024-02-16T06:48:48;102338.06;;;15.28;73.34
61026;BME280;46911;32.650;-16.902;2024-02-16T06:50:53;102364.00;;;15.44;73.46
61026;BME280;46911;32.650;-16.902;2024-02-16T06:52:57;102346.13;;;15.28;73.71
61026;BME280;46911;32.650;-16.902;2024-02-16T06:55:00;102357.38;;;15.35;73.57
61026;BME280;46911;32.650;-16.902;2024-02-16T06:57:04;102358.13;;;15.22;73.75
61026;BME280;46911;32.650;-16.902;2024-02-16T06:59:06;102370.22;;;15.30;73.55
61026;BME280;46911;32.650;-16.902;2024-02-16T07:01:09;102368.69;;;15.26;73.82
61026;BME280;46911;32.650;-16.902;2024-02-16T07:03:10;102349.28;;;15.06;74.00
61026;BME280;46911;32.650;-16.902;2024-02-16T07:05:16;102372.91;;;15.15;74.23
61026;BME280;46911;32.650;-16.902;2024-02-16T07:07:18;102359.34;;;15.02;74.19
61026;BME280;46911;32.650;-16.902;2024-02-16T07:09:19;102372.44;;;15.09;74.49
61026;BME280;46911;32.650;-16.902;2024-02-16T07:11:24;102372.50;;;15.07;74.23
61026;BME280;46911;32.650;-16.902;2024-02-16T07:13:25;102362.22;;;14.99;74.13
61026;BME280;46911;32.650;-16.902;2024-02-16T07:15:26;102380.56;;;15.07;74.09
61026;BME280;46911;32.650;-16.902;2024-02-16T07:17:32;102385.06;;;15.06;73.95
61026;BME280;46911;32.650;-16.902;2024-02-16T07:19:37;102369.88;;;14.91;73.68
61026;BME280;46911;32.650;-16.902;2024-02-16T07:21:43;102386.13;;;15.04;73.40
61026;BME280;46911;32.650;-16.902;2024-02-16T07:23:44;102364.59;;;14.89;73.62
61026;BME280;46911;32.650;-16.902;2024-02-16T07:25:45;102397.22;;;14.98;73.39
61026;BME280;46911;32.650;-16.902;2024-02-16T07:27:46;102397.72;;;14.90;73.35
61026;BME280;46911;32.650;-16.902;2024-02-16T07:29:50;102403.25;;;14.87;73.33
61026;BME280;46911;32.650;-16.902;2024-02-16T07:31:53;102397.38;;;14.80;73.48
61026;BME280;46911;32.650;-16.902;2024-02-16T07:33:54;102384.56;;;14.69;73.56
61026;BME280;46911;32.650;-16.902;2024-02-16T07:35:57;102351.75;;;14.48;73.22
61026;BME280;46911;32.650;-16.902;2024-02-16T07:37:58;102407.16;;;14.81;73.18
61026;BME280;46911;32.650;-16.902;2024-02-16T07:39:59;102408.31;;;14.77;72.98
61026;BME280;46911;32.650;-16.902;2024-02-16T07:42:00;102406.75;;;14.73;73.02
61026;BME280;46911;32.650;-16.902;2024-02-16T07:44:04;102397.56;;;14.61;72.86
61026;BME280;46911;32.650;-16.902;2024-02-16T07:46:08;102421.50;;;14.82;71.98
61026;BME280;46911;32.650;-16.902;2024-02-16T07:48:08;102428.94;;;14.77;71.70
61026;BME280;46911;32.650;-16.902;2024-02-16T07:50:10;102433.81;;;14.70;71.63
61026;BME280;46911;32.650;-16.902;2024-02-16T07:52:13;102413.78;;;14.60;71.08
61026;BME280;46911;32.650;-16.902;2024-02-16T07:54:16;102431.19;;;14.68;70.75
61026;BME280;46911;32.650;-16.902;2024-02-16T07:56:17;102430.44;;;14.66;70.53
61026;BME280;46911;32.650;-16.902;2024-02-16T07:58:19;102436.56;;;14.68;70.37
61026;BME280;46911;32.650;-16.902;2024-02-16T08:00:25;102437.16;;;14.73;69.71
61026;BME280;46911;32.650;-16.902;2024-02-16T08:02:31;102428.50;;;14.68;69.49
61026;BME280;46911;32.650;-16.902;2024-02-16T08:04:34;102427.56;;;14.69;68.91
61026;BME280;46911;32.650;-16.902;2024-02-16T08:06:41;102443.63;;;14.85;68.65
61026;BME280;46911;32.650;-16.902;2024-02-16T08:08:42;102422.59;;;14.78;68.46
61026;BME280;46911;32.650;-16.902;2024-02-16T08:10:45;102425.03;;;14.82;68.07
61026;BME280;46911;32.650;-16.902;2024-02-16T08:12:46;102427.72;;;14.82;67.87
61026;BME280;46911;32.650;-16.902;2024-02-16T08:14:47;102447.34;;;14.99;67.67
61026;BME280;46911;32.650;-16.902;2024-02-16T08:16:48;102448.19;;;15.15;67.21
61026;BME280;46911;32.650;-16.902;2024-02-16T08:18:49;102438.38;;;15.14;66.98
61026;BME280;46911;32.650;-16.902;2024-02-16T08:20:53;102430.47;;;15.11;67.01
61026;BME280;46911;32.650;-16.902;2024-02-16T08:22:56;102442.31;;;15.23;66.65
61026;BME280;46911;32.650;-16.902;2024-02-16T08:25:03;102454.25;;;15.33;66.59
61026;BME280;46911;32.650;-16.902;2024-02-16T08:27:04;102459.38;;;15.38;66.28
61026;BME280;46911;32.650;-16.902;2024-02-16T08:29:09;102468.09;;;15.42;65.84
61026;BME280;46911;32.650;-16.902;2024-02-16T08:31:15;102468.69;;;15.47;66.19
61026;BME280;46911;32.650;-16.902;2024-02-16T08:33:18;102447.72;;;15.37;66.07
61026;BME280;46911;32.650;-16.902;2024-02-16T08:35:19;102477.84;;;15.59;66.19
61026;BME280;46911;32.650;-16.902;2024-02-16T08:37:26;102454.19;;;15.49;66.05
61026;BME280;46911;32.650;-16.902;2024-02-16T08:39:27;102452.19;;;15.53;66.04
61026;BME280;46911;32.650;-16.902;2024-02-16T08:41:28;102475.91;;;15.75;65.80
61026;BME280;46911;32.650;-16.902;2024-02-16T08:43:29;102461.22;;;15.66;66.09
61026;BME280;46911;32.650;-16.902;2024-02-16T08:45:30;102473.06;;;15.78;66.15
61026;BME280;46911;32.650;-16.902;2024-02-16T08:47:31;102475.09;;;15.89;65.72
61026;BME280;46911;32.650;-16.902;2024-02-16T08:49:32;102470.69;;;15.88;65.65
61026;BME280;46911;32.650;-16.902;2024-02-16T08:51:33;102460.03;;;15.86;65.82
61026;BME280;46911;32.650;-16.902;2024-02-16T08:53:34;102480.88;;;16.12;65.61
61026;BME280;46911;32.650;-16.902;2024-02-16T08:55:35;102477.03;;;16.16;65.52
61026;BME280;46911;32.650;-16.902;2024-02-16T08:57:41;102460.28;;;16.11;65.36
61026;BME280;46911;32.650;-16.902;2024-02-16T08:59:46;102497.66;;;16.30;65.21
61026;BME280;46911;32.650;-16.902;2024-02-16T09:01:51;102445.00;;;16.11;64.91
61026;BME280;46911;32.650;-16.902;2024-02-16T09:03:55;102487.09;;;16.41;65.06
61026;BME280;46911;32.650;-16.902;2024-02-16T09:05:56;102502.34;;;16.40;65.14
61026;BME280;46911;32.650;-16.902;2024-02-16T09:07:57;102483.81;;;16.36;65.24
61026;BME280;46911;32.650;-16.902;2024-02-16T09:10:00;102506.97;;;16.53;65.29
61026;BME280;46911;32.650;-16.902;2024-02-16T09:12:03;102485.50;;;16.51;65.36
61026;BME280;46911;32.650;-16.902;2024-02-16T09:14:04;102487.81;;;16.57;65.27
61026;BME280;46911;32.650;-16.902;2024-02-16T09:16:07;102518.34;;;16.85;65.18
61026;BME280;46911;32.650;-16.902;2024-02-16T09:18:08;102526.59;;;16.97;64.94
61026;BME280;46911;32.650;-16.902;2024-02-16T09:20:10;102533.31;;;17.04;64.88
61026;BME280;46911;32.650;-16.902;2024-02-16T09:22:12;102534.84;;;17.08;64.85
61026;BME280;46911;32.650;-16.902;2024-02-16T09:24:13;102522.13;;;17.10;65.12
61026;BME280;46911;32.650;-16.902;2024-02-16T09:26:21;102501.09;;;17.02;65.16
61026;BME280;46911;32.650;-16.902;2024-02-16T09:28:27;102522.16;;;17.23;65.16
61026;BME280;46911;32.650;-16.902;2024-02-16T09:30:28;102527.59;;;17.36;65.26
61026;BME280;46911;32.650;-16.902;2024-02-16T09:32:29;102510.34;;;17.38;64.99
61026;BME280;46911;32.650;-16.902;2024-02-16T09:34:30;102518.13;;;17.56;64.85
61026;BME280;46911;32.650;-16.902;2024-02-16T09:36:30;102536.81;;;17.85;64.44
61026;BME280;46911;32.650;-16.902;2024-02-16T09:38:34;102532.66;;;17.94;64.45
61026;BME280;46911;32.650;-16.902;2024-02-16T09:40:37;102511.72;;;17.97;64.01
61026;BME280;46911;32.650;-16.902;2024-02-16T09:42:40;102533.06;;;18.26;64.03
61026;BME280;46911;32.650;-16.902;2024-02-16T09:44:44;102536.16;;;18.46;63.63
61026;BME280;46911;32.650;-16.902;2024-02-16T09:46:46;102528.88;;;18.59;63.22
61026;BME280;46911;32.650;-16.902;2024-02-16T09:48:51;102533.22;;;18.86;62.36
61026;BME280;46911;32.650;-16.902;2024-02-16T09:50:56;102524.63;;;19.05;62.02
61026;BME280;46911;32.650;-16.902;2024-02-16T09:52:58;102536.72;;;19.48;61.27
61026;BME280;46911;32.650;-16.902;2024-02-16T09:55:00;102535.50;;;20.21;59.77
61026;BME280;46911;32.650;-16.902;2024-02-16T09:57:01;102530.91;;;21.44;56.87
61026;BME280;46911;32.650;-16.902;2024-02-16T09:59:05;102517.09;;;22.70;53.34
61026;BME280;46911;32.650;-16.902;2024-02-16T10:01:16;102520.59;;;24.08;50.95
61026;BME280;46911;32.650;-16.902;2024-02-16T10:03:33;102531.63;;;25.70;44.62
61026;BME280;46911;32.650;-16.902;2024-02-16T10:05:34;102514.66;;;26.62;42.47
61026;BME280;46911;32.650;-16.902;2024-02-16T10:07:35;102534.63;;;27.63;39.80
61026;BME280;46911;32.650;-16.902;2024-02-16T10:09:38;102522.47;;;27.49;37.95
61026;BME280;46911;32.650;-16.902;2024-02-16T10:11:44;102523.31;;;27.00;38.91
61026;BME280;46911;32.650;-16.902;2024-02-16T10:14:17;102535.97;;;26.85;38.37
61026;BME280;46911;32.650;-16.902;2024-02-16T10:16:20;102521.06;;;26.79;38.03
61026;BME280;46911;32.650;-16.902;2024-02-16T10:18:20;102514.75;;;27.61;36.94
61026;BME280;46911;32.650;-16.902;2024-02-16T10:20:24;102534.69;;;28.11;35.13
61026;BME280;46911;32.650;-16.902;2024-02-16T10:22:28;102532.69;;;27.97;35.43
61026;BME280;46911;32.650;-16.902;2024-02-16T10:24:31;102539.09;;;27.56;35.96
61026;BME280;46911;32.650;-16.902;2024-02-16T10:26:32;102522.47;;;27.08;36.57